ROMMA est une association bénévole à but non lucratif. Votre soutien est indispensable : ADHERER à ROMMA ou FAIRE un DON

Lyon - (69, Rhône)

Plaine lyonnaise (169 m)   Longitude: 04° 49' 55" E   Latitude: 45° 43' 50" N Station partenaire n°124
 

Détail journalier du     <<     >>

Température Precipitation Humidité Pression Vent Dir Rafale Dir. rafale Ensol.
Heure (°C) (mm) (%) (hPa) (km/h) (km/h) (min)
01:00 13.908510141N5N0
02:00 13.808610141---5N0
03:00 14.108410141---6N0
04:00 13.308510142N6N0
05:00 12.409010142N6N0
06:00 12.9090101405N0
07:00 13.408910141N5N0
08:00 13.508810141N3N0
09:00 14.1088101500---0
10:00 15.407510153N13N0
11:00 17.206910164N14NO30
12:00 16.806910165N14N0
13:00 17.506810164N14N0
14:00 19.306210166NO18NO30
15:00 20.105710156NE18NE30
16:00 19.705910156NO19NO0
17:00 16.9076101510N27N10
18:00 17.307210155N19N0
19:00 17.406810163N8N0
20:00 17.007110163NO8N0
21:00 16.707110172NO8NO0
22:00 16.707210173NO13N0
23:00 16.207410173NO11O0
minuit 16.107610176NO23SO0

Graphique du 05-10-2019

 

Serveur OMMA